createdAt,value
2018-11-01T16:40:10.467Z,9.50
2018-11-01T16:41:09.751Z,10.20
2018-11-01T16:42:09.696Z,10.50
2018-11-01T16:43:10.627Z,10.60
2018-11-01T16:44:09.436Z,9.10
2018-11-01T16:45:09.356Z,11.20
2018-11-01T16:46:09.280Z,12.10
2018-11-01T16:47:09.246Z,12.60
2018-11-01T16:48:09.260Z,11.50
2018-11-01T16:49:09.258Z,12.00
2018-11-01T16:50:09.253Z,11.90
2018-11-01T16:51:09.329Z,12.30
2018-11-01T16:52:09.197Z,12.60
2018-11-01T16:53:09.177Z,12.00
2018-11-01T16:54:09.168Z,12.60
2018-11-01T16:55:09.192Z,12.60
2018-11-01T16:56:09.155Z,12.70
2018-11-01T16:57:09.141Z,13.10
2018-11-01T16:58:09.162Z,12.70
2018-11-01T16:59:09.113Z,13.60
2018-11-01T17:00:09.132Z,13.70
2018-11-01T17:01:09.182Z,14.40
2018-11-01T17:02:09.086Z,13.40
2018-11-01T17:03:09.064Z,11.80
2018-11-01T17:04:09.050Z,12.10
2018-11-01T17:05:09.223Z,11.90
2018-11-01T17:06:09.027Z,10.70
2018-11-01T17:07:09.021Z,10.70
2018-11-01T17:08:09.048Z,12.20
2018-11-01T17:09:09.008Z,12.20
2018-11-01T17:10:09.035Z,13.70
2018-11-01T17:11:09.014Z,12.60
2018-11-01T17:12:09.014Z,13.20
2018-11-01T17:13:08.947Z,14.30
2018-11-01T17:14:09.008Z,13.60
2018-11-01T17:15:08.958Z,13.00
2018-11-01T17:16:08.959Z,13.40
2018-11-01T17:17:08.972Z,12.70
2018-11-01T17:18:08.951Z,12.90
2018-11-01T17:19:08.883Z,13.60
2018-11-01T17:20:08.880Z,13.40
2018-11-01T17:21:08.896Z,12.70
2018-11-01T17:22:08.858Z,12.60
2018-11-01T17:23:08.915Z,12.10
2018-11-01T17:24:08.868Z,11.80
2018-11-01T17:25:08.894Z,11.00
2018-11-01T17:26:08.853Z,11.10
2018-11-01T17:27:08.805Z,11.70
2018-11-01T17:28:08.781Z,11.90
2018-11-01T17:29:08.807Z,10.90
2018-11-01T17:30:08.752Z,11.40
2018-11-01T17:31:08.759Z,11.40
2018-11-01T17:32:08.800Z,11.10
2018-11-01T17:33:08.717Z,11.30
2018-11-01T17:34:08.799Z,10.80
2018-11-01T17:35:08.779Z,11.30
2018-11-01T17:36:08.709Z,11.00
2018-11-01T17:37:08.722Z,11.30
2018-11-01T17:38:08.704Z,11.00
2018-11-01T17:39:08.675Z,10.90
2018-11-01T17:40:08.749Z,11.80
2018-11-01T17:41:08.670Z,11.20
2018-11-01T17:42:08.646Z,11.10
2018-11-01T17:43:08.663Z,11.50
2018-11-01T17:44:08.664Z,11.50
2018-11-01T17:45:08.643Z,11.70
2018-11-01T17:46:08.687Z,11.00
2018-11-01T17:47:08.577Z,11.70
2018-11-01T17:48:08.556Z,12.10
2018-11-01T17:49:08.591Z,11.10
2018-11-01T17:50:08.597Z,12.00
2018-11-01T17:51:08.539Z,11.20
2018-11-01T17:52:08.571Z,11.70
2018-11-01T17:53:08.522Z,11.60
2018-11-01T17:54:08.511Z,12.10
2018-11-01T17:55:08.494Z,12.00
2018-11-01T17:56:08.519Z,12.50
2018-11-01T17:57:08.447Z,12.40
2018-11-01T17:58:08.462Z,12.00
2018-11-01T17:59:08.429Z,11.00
2018-11-01T18:00:08.455Z,11.90
2018-11-01T18:01:08.448Z,11.70
2018-11-01T18:02:08.537Z,11.90
2018-11-01T18:03:08.425Z,12.10
2018-11-01T18:04:08.364Z,12.40
2018-11-01T18:05:08.683Z,11.40
2018-11-01T18:06:08.406Z,11.50
2018-11-01T18:07:08.329Z,11.80
2018-11-01T18:08:08.353Z,12.30
2018-11-01T18:09:08.471Z,12.60
2018-11-01T18:10:08.346Z,12.90
2018-11-01T18:11:08.290Z,12.20
2018-11-01T18:12:08.335Z,12.40
2018-11-01T18:13:08.261Z,12.10
2018-11-01T18:14:08.281Z,12.40
2018-11-01T18:15:08.246Z,12.00
2018-11-01T18:16:08.340Z,11.60
2018-11-01T18:17:08.218Z,12.30
2018-11-01T18:18:08.239Z,11.90
2018-11-01T18:19:08.280Z,12.10
2018-11-01T18:20:08.198Z,12.10
2018-11-01T18:21:08.217Z,12.70
2018-11-01T18:22:08.163Z,12.60
2018-11-01T18:23:08.202Z,11.80
2018-11-01T18:24:08.149Z,12.50
2018-11-01T18:25:08.139Z,12.20
2018-11-01T18:26:08.216Z,11.10
2018-11-01T18:27:08.119Z,11.20
2018-11-01T18:28:08.090Z,10.70
2018-11-01T18:29:08.083Z,10.80
2018-11-01T18:30:08.139Z,10.30
2018-11-01T18:31:08.183Z,10.20
2018-11-01T18:32:08.213Z,10.30
2018-11-01T18:33:08.164Z,8.90
2018-11-01T18:34:08.022Z,9.50
2018-11-01T18:35:08.243Z,9.70
2018-11-01T18:36:08.038Z,9.20
2018-11-01T18:37:08.003Z,8.90
2018-11-01T18:38:08.029Z,8.80
2018-11-01T18:39:08.086Z,8.60
2018-11-01T18:40:07.960Z,8.90
2018-11-01T18:41:07.973Z,8.90
2018-11-01T18:42:07.979Z,8.70
2018-11-01T18:43:07.996Z,8.60
2018-11-01T18:44:07.932Z,8.60
2018-11-01T18:45:07.898Z,8.60
2018-11-01T18:46:07.900Z,8.00
2018-11-01T18:47:07.902Z,7.60
2018-11-01T18:48:07.944Z,7.40
2018-11-01T18:49:07.987Z,7.70
2018-11-01T18:50:07.861Z,6.80
2018-11-01T18:51:07.828Z,6.80
2018-11-01T18:52:07.931Z,6.90
2018-11-01T18:53:07.816Z,6.00
2018-11-01T18:54:07.862Z,6.10
2018-11-01T18:55:07.825Z,6.00
2018-11-01T18:56:07.819Z,5.90
2018-11-01T18:57:07.762Z,6.10
2018-11-01T18:58:07.764Z,5.70
2018-11-01T18:59:07.795Z,5.50
2018-11-01T19:00:07.759Z,5.50
2018-11-01T19:01:07.766Z,5.60
2018-11-01T19:02:07.740Z,5.20
2018-11-01T19:03:07.720Z,5.40
2018-11-01T19:04:07.707Z,5.60
2018-11-01T19:05:07.852Z,5.80
2018-11-01T19:06:07.676Z,5.70
2018-11-01T19:07:07.768Z,6.60
2018-11-01T19:08:07.682Z,6.40
2018-11-01T19:09:07.623Z,6.50
2018-11-01T19:10:07.690Z,6.20
2018-11-01T19:11:07.749Z,6.00
2018-11-01T19:12:07.623Z,5.80
2018-11-01T19:13:07.594Z,5.50
2018-11-01T19:14:07.702Z,5.70
2018-11-01T19:15:07.572Z,5.70
2018-11-01T19:16:07.567Z,6.00
2018-11-01T19:17:07.632Z,5.50
2018-11-01T19:18:07.537Z,5.60
2018-11-01T19:19:07.579Z,5.80
2018-11-01T19:20:07.514Z,6.50
2018-11-01T19:21:07.577Z,5.60
2018-11-01T19:22:07.490Z,6.00
2018-11-01T19:23:07.524Z,6.00
2018-11-01T19:24:07.490Z,6.00
2018-11-01T19:25:07.515Z,5.80
2018-11-01T19:26:07.485Z,6.10
2018-11-01T19:27:07.630Z,5.90
2018-11-01T19:28:07.515Z,5.90
2018-11-01T19:29:07.418Z,5.40
2018-11-01T19:30:07.388Z,6.30
2018-11-01T19:31:07.416Z,6.00
2018-11-01T19:32:07.370Z,6.20
2018-11-01T19:33:07.415Z,6.70
2018-11-01T19:34:07.539Z,5.90
2018-11-01T19:35:07.381Z,6.40
2018-11-01T19:36:07.343Z,6.30
2018-11-01T19:37:07.324Z,6.30
2018-11-01T19:38:07.305Z,6.00
2018-11-01T19:39:07.324Z,6.60
2018-11-01T19:40:07.474Z,6.60
2018-11-01T19:41:07.269Z,6.40
2018-11-01T19:42:07.318Z,6.50
2018-11-01T19:43:07.240Z,6.50
2018-11-01T19:44:07.300Z,6.40
2018-11-01T19:45:07.256Z,6.10
2018-11-01T19:46:07.231Z,7.00
2018-11-01T19:47:07.216Z,6.80
2018-11-01T19:48:07.255Z,6.40
2018-11-01T19:49:07.190Z,7.30
2018-11-01T19:50:07.177Z,6.90
2018-11-01T19:51:07.225Z,7.50
2018-11-01T19:52:07.232Z,7.20
2018-11-01T19:53:07.131Z,6.70
2018-11-01T19:54:07.167Z,7.30
2018-11-01T19:55:07.108Z,7.20
2018-11-01T19:56:07.092Z,7.50
2018-11-01T19:57:07.095Z,7.60
2018-11-01T19:58:07.147Z,7.50
2018-11-01T19:59:07.077Z,7.40
2018-11-01T20:00:07.066Z,7.90
2018-11-01T20:01:07.110Z,7.90
2018-11-01T20:02:07.053Z,7.90
2018-11-01T20:03:07.041Z,8.20
2018-11-01T20:04:07.150Z,8.20
2018-11-01T20:05:07.249Z,8.70
2018-11-01T20:06:06.979Z,8.80
2018-11-01T20:07:06.990Z,8.80
2018-11-01T20:08:06.963Z,9.50
2018-11-01T20:09:06.946Z,9.50
2018-11-01T20:10:06.978Z,9.90
2018-11-01T20:11:06.992Z,9.80
2018-11-01T20:12:06.920Z,10.00
2018-11-01T20:13:06.904Z,10.20
2018-11-01T20:14:06.893Z,10.50
2018-11-01T20:15:06.885Z,10.70
2018-11-01T20:16:06.878Z,10.80
2018-11-01T20:17:06.904Z,9.90
2018-11-01T20:18:06.864Z,10.60
2018-11-01T20:19:06.987Z,10.80
2018-11-01T20:20:06.820Z,10.90
2018-11-01T20:21:06.853Z,10.00
2018-11-01T20:22:06.808Z,9.90
2018-11-01T20:23:06.789Z,9.90
2018-11-01T20:24:06.780Z,10.20
2018-11-01T20:25:06.777Z,10.20
2018-11-01T20:26:06.756Z,9.20
2018-11-01T20:27:06.796Z,8.90
2018-11-01T20:28:06.732Z,9.10
2018-11-01T20:29:06.726Z,9.40
2018-11-01T20:30:06.736Z,9.60
2018-11-01T20:31:06.737Z,9.80
2018-11-01T20:32:06.722Z,9.70
2018-11-01T20:33:06.710Z,9.20
2018-11-01T20:34:06.678Z,9.60
2018-11-01T20:35:06.813Z,9.20
2018-11-01T20:36:06.685Z,8.20
2018-11-01T20:37:06.628Z,8.50
2018-11-01T20:38:06.736Z,8.50
2018-11-01T20:39:06.683Z,7.30
2018-11-01T20:40:06.621Z,7.40
2018-11-01T20:41:06.576Z,8.20
2018-11-01T20:42:06.572Z,7.90
2018-11-01T20:43:06.559Z,7.40
2018-11-01T20:44:06.583Z,7.80
2018-11-01T20:45:06.575Z,8.10
2018-11-01T20:46:06.527Z,7.30
2018-11-01T20:47:06.510Z,7.30
2018-11-01T20:48:06.506Z,7.30
2018-11-01T20:49:06.496Z,7.90
2018-11-01T20:50:06.556Z,7.70
2018-11-01T20:51:06.508Z,7.70
2018-11-01T20:52:06.501Z,7.50
2018-11-01T20:53:06.506Z,7.80
2018-11-01T20:54:06.435Z,7.70
2018-11-01T20:55:06.421Z,7.90
2018-11-01T20:56:06.431Z,7.70
2018-11-01T20:57:06.487Z,7.80
2018-11-01T20:58:06.400Z,7.50
2018-11-01T20:59:06.419Z,8.10
2018-11-01T21:00:06.366Z,7.30
2018-11-01T21:01:06.353Z,7.50
2018-11-01T21:02:06.353Z,8.00
2018-11-01T21:03:06.337Z,7.80
2018-11-01T21:04:06.328Z,7.90
2018-11-01T21:05:06.480Z,8.20
2018-11-01T21:06:06.298Z,8.40
2018-11-01T21:07:06.294Z,8.20
2018-11-01T21:08:06.318Z,8.90
2018-11-01T21:09:06.265Z,8.70
2018-11-01T21:10:06.255Z,8.20
2018-11-01T21:11:06.307Z,8.50
2018-11-01T21:12:06.228Z,8.70
2018-11-01T21:13:06.221Z,8.40
2018-11-01T21:14:06.240Z,8.70
2018-11-01T21:15:06.192Z,9.10
2018-11-01T21:16:06.229Z,8.40
2018-11-01T21:17:06.273Z,8.90
2018-11-01T21:18:06.159Z,8.40
2018-11-01T21:19:06.149Z,8.30
2018-11-01T21:20:06.244Z,8.30
2018-11-01T21:21:06.125Z,8.60
2018-11-01T21:22:06.210Z,9.30
2018-11-01T21:23:06.103Z,9.10
2018-11-01T21:24:06.094Z,8.40
2018-11-01T21:25:06.088Z,8.90
2018-11-01T21:26:06.121Z,8.80
2018-11-01T21:27:06.111Z,8.90
2018-11-01T21:28:06.048Z,9.40
2018-11-01T21:29:06.050Z,9.20
2018-11-01T21:30:06.091Z,8.80
2018-11-01T21:31:06.016Z,8.90
2018-11-01T21:32:06.010Z,9.10
2018-11-01T21:33:05.994Z,9.40
2018-11-01T21:34:05.986Z,9.10
2018-11-01T21:35:06.334Z,9.00
2018-11-01T21:36:06.295Z,9.70
2018-11-01T21:37:05.949Z,9.10
2018-11-01T21:38:05.969Z,9.50
2018-11-01T21:39:05.964Z,9.20
2018-11-01T21:40:05.917Z,9.90
2018-11-01T21:41:05.941Z,9.40
2018-11-01T21:42:05.891Z,9.00
2018-11-01T21:43:05.915Z,9.80
2018-11-01T21:44:05.975Z,9.10
2018-11-01T21:45:05.852Z,9.40
2018-11-01T21:46:05.856Z,8.90
2018-11-01T21:47:05.831Z,9.30
2018-11-01T21:48:05.823Z,9.20
2018-11-01T21:49:05.863Z,9.90
2018-11-01T21:50:05.838Z,9.50
2018-11-01T21:51:05.795Z,9.20
2018-11-01T21:52:05.776Z,9.70
2018-11-01T21:53:05.864Z,9.50
2018-11-01T21:54:05.803Z,9.80
2018-11-01T21:55:05.780Z,9.40
2018-11-01T21:56:05.745Z,9.40
2018-11-01T21:57:05.724Z,10.00
2018-11-01T21:58:05.764Z,9.20
2018-11-01T21:59:05.695Z,9.60
2018-11-01T22:00:05.685Z,9.70
2018-11-01T22:01:05.673Z,10.00
2018-11-01T22:02:05.673Z,9.70
2018-11-01T22:03:05.711Z,9.50
2018-11-01T22:04:05.644Z,9.40
2018-11-01T22:05:05.828Z,9.50
2018-11-01T22:06:05.634Z,9.90
2018-11-01T22:07:05.606Z,9.40
2018-11-01T22:08:05.604Z,9.60
2018-11-01T22:09:05.640Z,8.80
2018-11-01T22:10:05.596Z,9.40
2018-11-01T22:11:05.559Z,9.70
2018-11-01T22:12:05.548Z,9.70
2018-11-01T22:13:05.572Z,10.50
2018-11-01T22:14:05.543Z,10.20
2018-11-01T22:15:05.572Z,10.10
2018-11-01T22:16:05.507Z,10.30
2018-11-01T22:17:05.493Z,10.80
2018-11-01T22:18:05.487Z,10.90
2018-11-01T22:19:05.473Z,10.50
2018-11-01T22:20:05.461Z,11.10
2018-11-01T22:21:05.512Z,10.70
2018-11-01T22:22:05.435Z,11.10
2018-11-01T22:23:05.426Z,10.90
2018-11-01T22:24:05.469Z,11.00
2018-11-01T22:25:05.413Z,11.00
2018-11-01T22:26:05.392Z,11.40
2018-11-01T22:27:05.392Z,10.70
2018-11-01T22:28:05.382Z,11.10
2018-11-01T22:29:05.356Z,10.40
2018-11-01T22:30:05.403Z,10.50
2018-11-01T22:31:05.331Z,10.80
2018-11-01T22:32:05.366Z,11.00
2018-11-01T22:33:05.323Z,10.90
2018-11-01T22:34:05.315Z,10.30
2018-11-01T22:35:05.403Z,10.50
2018-11-01T22:36:05.316Z,11.30
2018-11-01T22:37:05.269Z,10.50
2018-11-01T22:38:05.297Z,11.00
2018-11-01T22:39:05.248Z,10.80
2018-11-01T22:40:05.322Z,10.30
2018-11-01T22:41:05.227Z,11.30
2018-11-01T22:42:05.215Z,10.80
2018-11-01T22:43:05.199Z,10.60
2018-11-01T22:44:05.187Z,10.50
2018-11-01T22:45:05.171Z,10.10
2018-11-01T22:46:05.235Z,10.90
2018-11-01T22:47:05.152Z,10.70
2018-11-01T22:48:05.139Z,10.50
2018-11-01T22:49:05.129Z,10.90
2018-11-01T22:50:05.124Z,10.90
2018-11-01T22:51:05.103Z,10.80
2018-11-01T22:52:05.141Z,10.80
2018-11-01T22:53:05.098Z,10.60
2018-11-01T22:54:05.073Z,10.50
2018-11-01T22:55:05.059Z,10.40
2018-11-01T22:56:05.055Z,10.90
2018-11-01T22:57:05.037Z,10.30
2018-11-01T22:58:05.067Z,10.90
2018-11-01T22:59:05.063Z,10.50
2018-11-01T23:00:05.082Z,10.50
2018-11-01T23:01:04.997Z,10.00
2018-11-01T23:02:04.984Z,10.40
2018-11-01T23:03:04.965Z,9.80
2018-11-01T23:04:04.960Z,10.60
2018-11-01T23:05:04.989Z,10.20
2018-11-01T23:06:04.973Z,10.80
2018-11-01T23:07:04.927Z,10.30
2018-11-01T23:08:04.907Z,10.70
2018-11-01T23:09:04.909Z,11.80
2018-11-01T23:10:04.906Z,10.40
2018-11-01T23:11:04.906Z,10.60
2018-11-01T23:12:04.904Z,10.80
2018-11-01T23:13:04.857Z,10.80
2018-11-01T23:14:04.889Z,10.30
2018-11-01T23:15:04.831Z,10.70
2018-11-01T23:16:04.884Z,9.90
2018-11-01T23:17:04.864Z,10.10
2018-11-01T23:18:04.802Z,10.00
2018-11-01T23:19:04.804Z,9.60
2018-11-01T23:20:04.791Z,9.20
2018-11-01T23:21:04.761Z,9.80
2018-11-01T23:22:04.794Z,9.60
2018-11-01T23:23:04.737Z,9.70
2018-11-01T23:24:04.731Z,9.00
2018-11-01T23:25:04.729Z,9.30
2018-11-01T23:26:04.716Z,9.80
2018-11-01T23:27:04.745Z,9.10
2018-11-01T23:28:04.684Z,9.20
2018-11-01T23:29:04.671Z,9.00
2018-11-01T23:30:04.663Z,8.70
2018-11-01T23:31:04.665Z,8.40
2018-11-01T23:32:04.640Z,8.30
2018-11-01T23:33:04.762Z,8.10
2018-11-01T23:34:04.645Z,8.40
2018-11-01T23:35:04.855Z,8.60
2018-11-01T23:36:04.591Z,8.60
2018-11-01T23:37:04.726Z,8.30
2018-11-01T23:38:04.568Z,8.70
2018-11-01T23:39:04.604Z,8.60
2018-11-01T23:40:04.546Z,8.30
2018-11-01T23:41:04.536Z,7.90
2018-11-01T23:42:04.525Z,8.20
2018-11-01T23:43:04.551Z,8.00
2018-11-01T23:44:04.549Z,8.30
2018-11-01T23:45:04.492Z,8.10
2018-11-01T23:46:04.517Z,7.80
2018-11-01T23:47:04.468Z,7.70
2018-11-01T23:48:04.457Z,8.10
2018-11-01T23:49:04.486Z,8.20
2018-11-01T23:50:04.453Z,8.20
2018-11-01T23:51:04.479Z,8.60
2018-11-01T23:52:04.421Z,8.20
2018-11-01T23:53:04.398Z,8.40
2018-11-01T23:54:04.422Z,7.90
2018-11-01T23:55:04.380Z,7.80
2018-11-01T23:56:04.367Z,8.20
2018-11-01T23:57:04.444Z,8.50
2018-11-01T23:58:04.344Z,8.20
2018-11-01T23:59:04.381Z,8.80
